Time;durP1;ratioP1;P1;durP2;ratioP2;P2;SDS_P1;SDS_P2;PMS_P1;PMS_P2;Temp;Humidity;BMP_temperature;BMP_pressure;BME280_temperature;BME280_humidity;BME280_pressure;Samples;Min_cycle;Max_cycle;Signal;HPM_P1;HPM_P2
2023/03/16 00:00:27;;;;;;;8.57;3.72;;;2.50;99.90;;;;;;6246361;22;20012;-79
2023/03/16 00:02:53;;;;;;;8.77;3.63;;;2.50;99.90;;;;;;6219911;22;20061;-79
2023/03/16 00:05:19;;;;;;;10.70;3.53;;;2.50;99.90;;;;;;6220831;22;20011;-78
2023/03/16 00:07:44;;;;;;;7.82;3.80;;;2.90;99.90;;;;;;6272939;22;20011;-79
2023/03/16 00:10:12;;;;;;;8.60;3.92;;;2.50;99.90;;;;;;6273581;22;20792;-78
2023/03/16 00:12:38;;;;;;;10.95;3.80;;;2.60;99.90;;;;;;6220818;22;20430;-78
2023/03/16 00:15:04;;;;;;;11.27;3.50;;;2.60;99.90;;;;;;6245296;22;20008;-77
2023/03/16 00:17:30;;;;;;;9.93;3.40;;;2.70;99.90;;;;;;6244725;22;20071;-78
2023/03/16 00:19:56;;;;;;;8.55;3.90;;;2.70;99.90;;;;;;6220709;22;20447;-78
2023/03/16 00:22:27;;;;;;;15.93;4.10;;;2.70;99.90;;;;;;6273181;22;20093;-78
2023/03/16 00:24:53;;;;;;;10.98;3.78;;;2.70;99.90;;;;;;6220604;22;20083;-78
2023/03/16 00:27:21;;;;;;;12.90;4.00;;;2.70;99.90;;;;;;6219834;22;20050;-78
2023/03/16 00:29:48;;;;;;;8.27;3.38;;;2.80;99.90;;;;;;6245710;22;20016;-77
2023/03/16 00:32:22;;;;;;;8.30;3.92;;;2.80;99.90;;;;;;6219604;22;20008;-77
2023/03/16 00:34:47;;;;;;;8.73;3.45;;;2.80;99.90;;;;;;6245785;22;20041;-78
2023/03/16 00:37:15;;;;;;;13.02;3.95;;;3.10;99.90;;;;;;6272608;22;20182;-77
2023/03/16 00:39:42;;;;;;;12.07;4.13;;;2.90;99.90;;;;;;6220565;22;20094;-78
2023/03/16 00:42:09;;;;;;;10.30;4.43;;;2.90;99.90;;;;;;6220546;22;20090;-78
2023/03/16 00:44:36;;;;;;;11.60;4.35;;;2.90;99.90;;;;;;6220260;22;20023;-77
2023/03/16 00:47:03;;;;;;;9.15;3.70;;;2.90;99.90;;;;;;6244428;22;20041;-78
2023/03/16 00:49:33;;;;;;;12.80;4.07;;;2.80;99.90;;;;;;6245554;22;20050;-77
2023/03/16 00:52:05;;;;;;;9.73;3.38;;;2.80;99.90;;;;;;6245730;22;20091;-78
2023/03/16 00:54:31;;;;;;;9.20;3.97;;;2.90;99.90;;;;;;6220248;22;20008;-77
2023/03/16 00:56:58;;;;;;;6.85;3.63;;;2.90;99.90;;;;;;6272554;22;20411;-77
2023/03/16 00:59:25;;;;;;;10.50;3.63;;;2.90;99.90;;;;;;6273117;22;20056;-78
2023/03/16 01:01:51;;;;;;;7.72;4.07;;;2.90;99.90;;;;;;6244713;22;20008;-77
2023/03/16 01:04:18;;;;;;;6.00;3.38;;;3.00;99.90;;;;;;6219825;22;20334;-77
2023/03/16 01:06:44;;;;;;;9.93;3.95;;;3.00;99.90;;;;;;6272437;22;20026;-78
2023/03/16 01:09:10;;;;;;;11.25;4.65;;;3.00;99.90;;;;;;6220327;22;20465;-77
2023/03/16 01:11:36;;;;;;;9.75;3.75;;;3.00;99.90;;;;;;6220124;22;20008;-77
2023/03/16 01:14:02;;;;;;;8.90;4.22;;;3.00;99.90;;;;;;6245316;22;20462;-78
2023/03/16 01:16:28;;;;;;;12.32;4.30;;;3.00;99.90;;;;;;6218922;22;20073;-77
2023/03/16 01:18:56;;;;;;;7.97;4.22;;;3.00;99.90;;;;;;6245698;22;20446;-78
2023/03/16 01:21:22;;;;;;;8.77;4.03;;;3.00;99.90;;;;;;6245394;22;20023;-78
2023/03/16 01:23:48;;;;;;;13.18;4.78;;;3.00;99.90;;;;;;6245514;22;20019;-78
2023/03/16 01:26:16;;;;;;;10.05;4.60;;;3.00;99.90;;;;;;6219995;22;20012;-78
2023/03/16 01:28:43;;;;;;;10.93;4.68;;;3.00;99.90;;;;;;6272092;22;20004;-78
2023/03/16 01:31:10;;;;;;;12.13;4.75;;;3.00;99.90;;;;;;6245297;22;20052;-78
2023/03/16 01:33:36;;;;;;;9.27;4.70;;;3.00;99.90;;;;;;6272548;22;20019;-78
2023/03/16 01:36:08;;;;;;;7.63;4.43;;;3.00;99.90;;;;;;6245515;22;20435;-77
2023/03/16 01:38:34;;;;;;;11.38;5.15;;;3.10;99.90;;;;;;6244772;22;20018;-77
2023/03/16 01:41:00;;;;;;;8.93;5.18;;;3.10;99.90;;;;;;6245398;22;20352;-78
2023/03/16 01:43:28;;;;;;;10.75;4.95;;;3.20;99.90;;;;;;6219962;22;20090;-77
2023/03/16 01:46:13;;;;;;;10.48;5.45;;;3.20;99.90;;;;;;6244900;22;20038;-77
2023/03/16 01:48:45;;;;;;;10.05;5.00;;;3.20;99.90;;;;;;6244972;22;20015;-77
2023/03/16 01:51:20;;;;;;;14.82;5.95;;;3.20;99.90;;;;;;6245373;22;20010;-77
2023/03/16 01:53:48;;;;;;;14.45;5.68;;;3.20;99.90;;;;;;6272394;22;20453;-78
2023/03/16 01:56:22;;;;;;;13.32;6.20;;;3.20;99.90;;;;;;6272783;22;20343;-78
2023/03/16 01:58:50;;;;;;;10.35;5.38;;;3.30;99.90;;;;;;6219458;22;20012;-78
2023/03/16 02:03:56;;;;;;;9.82;5.55;;;3.30;99.90;;;;;;6255524;22;20471;-77
2023/03/16 02:06:22;;;;;;;13.57;6.13;;;3.40;99.90;;;;;;6219714;22;20101;-77
2023/03/16 02:08:49;;;;;;;9.93;5.90;;;3.30;99.90;;;;;;6245516;22;20437;-77
2023/03/16 02:11:18;;;;;;;13.07;5.70;;;3.40;99.90;;;;;;6219828;22;20008;-78
2023/03/16 02:13:45;;;;;;;10.45;5.28;;;3.30;99.90;;;;;;6219320;22;20091;-78
2023/03/16 02:16:13;;;;;;;11.70;5.70;;;3.30;99.90;;;;;;6245071;22;20351;-78
2023/03/16 02:18:39;;;;;;;11.15;5.00;;;3.30;99.90;;;;;;6245293;22;20086;-77
2023/03/16 02:21:08;;;;;;;9.60;5.55;;;3.40;99.90;;;;;;6245354;22;20378;-78
2023/03/16 02:23:34;;;;;;;12.10;5.43;;;3.40;99.90;;;;;;6271988;22;20003;-77
2023/03/16 02:26:07;;;;;;;9.52;5.50;;;3.40;99.90;;;;;;6272161;22;20170;-77
2023/03/16 02:28:47;;;;;;;13.82;5.32;;;3.40;99.90;;;;;;6245383;22;20057;-77
2023/03/16 02:31:15;;;;;;;10.30;4.88;;;3.40;99.90;;;;;;6271926;22;20018;-77
2023/03/16 02:33:42;;;;;;;9.73;4.68;;;3.40;99.90;;;;;;6218719;22;20488;-77
2023/03/16 02:36:08;;;;;;;16.55;5.10;;;3.40;99.90;;;;;;6244585;22;20012;-78
2023/03/16 02:38:33;;;;;;;9.00;4.68;;;3.40;99.90;;;;;;6246299;22;20014;-77
2023/03/16 02:41:13;;;;;;;7.88;5.03;;;3.40;99.90;;;;;;6246636;22;20011;-78
2023/03/16 02:43:43;;;;;;;9.48;4.75;;;3.50;99.90;;;;;;6246247;22;20409;-77
2023/03/16 02:46:08;;;;;;;8.88;4.80;;;3.60;99.90;;;;;;6246132;22;20015;-77
2023/03/16 02:48:43;;;;;;;11.82;4.88;;;3.50;99.90;;;;;;6247119;22;20007;-78
2023/03/16 02:51:10;;;;;;;9.55;5.05;;;3.60;99.90;;;;;;6221504;22;20043;-78
2023/03/16 02:53:36;;;;;;;12.68;5.03;;;3.60;99.90;;;;;;6246475;22;20018;-77
2023/03/16 02:56:02;;;;;;;10.57;5.75;;;3.60;99.90;;;;;;6220971;22;20008;-77
2023/03/16 02:58:28;;;;;;;8.15;4.95;;;3.60;99.90;;;;;;6246356;22;20008;-78
2023/03/16 03:00:55;;;;;;;8.43;5.10;;;3.60;99.90;;;;;;6246109;22;20035;-77
2023/03/16 03:03:21;;;;;;;9.70;4.90;;;4.00;99.90;;;;;;6245480;22;20012;-77
2023/03/16 03:05:47;;;;;;;15.27;6.10;;;3.70;99.90;;;;;;6246599;22;20089;-78
2023/03/16 03:08:13;;;;;;;8.20;5.45;;;3.70;99.90;;;;;;6244995;22;20016;-77
2023/03/16 03:10:39;;;;;;;10.73;5.05;;;3.60;99.90;;;;;;6220981;22;20008;-78
2023/03/16 03:13:06;;;;;;;9.32;5.18;;;3.60;99.90;;;;;;6220938;22;20062;-77
2023/03/16 03:15:32;;;;;;;8.95;4.85;;;3.70;99.90;;;;;;6220623;22;20011;-78
2023/03/16 03:17:58;;;;;;;15.00;5.63;;;3.60;99.90;;;;;;6246445;22;20048;-77
2023/03/16 03:20:24;;;;;;;10.57;5.72;;;3.70;99.90;;;;;;6246357;22;20303;-78
2023/03/16 03:22:51;;;;;;;9.27;4.85;;;3.70;99.90;;;;;;6221135;22;20023;-78
2023/03/16 03:25:19;;;;;;;8.55;4.72;;;3.70;99.90;;;;;;6246671;22;20016;-78
2023/03/16 03:27:45;;;;;;;9.82;5.05;;;3.70;99.90;;;;;;6246669;22;20007;-78
2023/03/16 03:30:15;;;;;;;9.02;5.43;;;3.70;99.90;;;;;;6272758;22;20082;-78
2023/03/16 03:32:42;;;;;;;13.13;5.57;;;3.70;99.90;;;;;;6273769;22;20129;-78
2023/03/16 03:35:13;;;;;;;10.77;5.43;;;3.70;99.90;;;;;;6246571;22;20012;-77
2023/03/16 03:37:41;;;;;;;9.38;5.13;;;3.70;99.90;;;;;;6221150;22;20384;-78
2023/03/16 03:40:09;;;;;;;8.90;5.07;;;3.70;99.90;;;;;;6273366;22;20016;-78
2023/03/16 03:42:35;;;;;;;12.02;4.90;;;3.70;99.90;;;;;;6246447;22;20093;-78
2023/03/16 03:45:00;;;;;;;6.93;4.90;;;3.60;99.90;;;;;;6272742;22;20019;-78
2023/03/16 03:47:26;;;;;;;10.05;5.45;;;3.60;99.90;;;;;;6246510;22;20020;-78
2023/03/16 03:49:52;;;;;;;11.27;4.80;;;3.60;99.90;;;;;;6245640;22;20014;-78
2023/03/16 03:52:17;;;;;;;9.50;5.18;;;3.70;99.90;;;;;;6246130;22;20015;-78
2023/03/16 03:54:43;;;;;;;12.50;4.97;;;3.70;99.90;;;;;;6220801;22;20011;-78
2023/03/16 03:57:08;;;;;;;9.95;5.07;;;3.70;99.90;;;;;;6246184;22;20024;-77
2023/03/16 03:59:39;;;;;;;8.93;4.50;;;3.70;99.90;;;;;;6245331;22;20016;-78
2023/03/16 04:02:05;;;;;;;11.13;4.90;;;3.70;99.90;;;;;;6221079;22;20012;-77
2023/03/16 04:04:31;;;;;;;9.30;4.80;;;3.70;99.90;;;;;;6246521;22;20373;-77
2023/03/16 04:06:56;;;;;;;10.93;5.03;;;3.70;99.90;;;;;;6246448;22;20098;-78
2023/03/16 04:09:22;;;;;;;10.75;5.40;;;3.70;99.90;;;;;;6245767;22;20489;-78
2023/03/16 04:11:48;;;;;;;8.77;5.50;;;3.70;99.90;;;;;;6220649;22;20015;-78
2023/03/16 04:14:14;;;;;;;10.70;5.20;;;3.70;99.90;;;;;;6219944;22;20399;-78
2023/03/16 04:16:39;;;;;;;9.40;5.32;;;3.70;99.90;;;;;;6273522;22;20077;-78
2023/03/16 04:19:05;;;;;;;10.50;5.40;;;3.70;99.90;;;;;;6220172;22;20467;-78
2023/03/16 04:21:31;;;;;;;7.70;4.78;;;3.70;99.90;;;;;;6220555;22;20015;-78
2023/03/16 04:23:56;;;;;;;11.23;5.63;;;3.70;99.90;;;;;;6220252;22;20027;-78
2023/03/16 04:26:24;;;;;;;8.75;4.72;;;3.70;99.90;;;;;;6220828;22;20177;-77
2023/03/16 04:28:51;;;;;;;9.25;5.15;;;3.70;99.90;;;;;;6244557;22;20031;-78
2023/03/16 04:31:17;;;;;;;11.45;5.15;;;3.70;99.90;;;;;;6245752;22;20012;-77
2023/03/16 04:33:42;;;;;;;9.48;5.40;;;3.70;99.90;;;;;;6245724;22;20012;-78
2023/03/16 04:36:08;;;;;;;11.70;5.25;;;3.70;99.90;;;;;;6245782;22;20138;-78
2023/03/16 04:38:34;;;;;;;12.48;5.72;;;3.80;99.90;;;;;;6245176;22;20099;-78
2023/03/16 04:41:01;;;;;;;8.15;4.90;;;3.80;99.90;;;;;;6245586;22;20012;-78
2023/03/16 04:43:27;;;;;;;8.93;5.65;;;3.80;99.90;;;;;;6245254;22;20012;-78
2023/03/16 04:45:52;;;;;;;9.80;5.97;;;3.80;99.90;;;;;;6245595;22;20373;-77
2023/03/16 04:48:18;;;;;;;10.50;5.82;;;3.80;99.90;;;;;;6245171;22;20015;-78
2023/03/16 04:50:44;;;;;;;9.13;5.30;;;3.80;99.90;;;;;;6246025;22;20019;-77
2023/03/16 04:53:10;;;;;;;10.57;5.55;;;3.80;99.90;;;;;;6245572;22;20020;-77
2023/03/16 04:55:35;;;;;;;11.10;5.18;;;3.80;99.90;;;;;;6219762;22;20094;-77
2023/03/16 04:58:01;;;;;;;9.68;5.40;;;3.80;99.90;;;;;;6245952;22;20007;-78
2023/03/16 05:00:27;;;;;;;12.00;5.97;;;3.80;99.90;;;;;;6246722;22;20015;-78
2023/03/16 05:02:53;;;;;;;9.38;5.35;;;3.80;99.90;;;;;;6246131;22;20083;-77
2023/03/16 05:05:20;;;;;;;9.57;5.38;;;3.80;99.90;;;;;;6221795;22;20097;-78
2023/03/16 05:07:46;;;;;;;11.63;5.50;;;3.80;99.90;;;;;;6246456;22;20011;-78
2023/03/16 05:10:14;;;;;;;10.23;5.95;;;3.80;99.90;;;;;;6246071;22;20141;-77
2023/03/16 05:12:40;;;;;;;8.30;5.43;;;3.80;99.90;;;;;;6246597;22;20012;-77
2023/03/16 05:15:06;;;;;;;10.30;5.68;;;3.90;99.90;;;;;;6220863;22;20497;-78
2023/03/16 05:17:32;;;;;;;10.15;6.07;;;3.80;99.90;;;;;;6221099;22;20054;-77
2023/03/16 05:19:57;;;;;;;11.32;5.80;;;3.80;99.90;;;;;;6245114;22;20096;-77
2023/03/16 05:22:23;;;;;;;8.70;5.68;;;3.80;99.90;;;;;;6273916;22;20008;-77
2023/03/16 05:24:49;;;;;;;10.85;6.28;;;3.80;99.90;;;;;;6220598;22;20430;-77
2023/03/16 05:27:14;;;;;;;11.18;6.05;;;3.80;99.90;;;;;;6221390;22;20019;-78
2023/03/16 05:29:45;;;;;;;11.63;5.85;;;3.80;99.90;;;;;;6246463;22;20095;-78
2023/03/16 05:32:11;;;;;;;8.68;5.40;;;4.00;99.90;;;;;;6246390;22;20011;-77
2023/03/16 05:34:36;;;;;;;8.60;5.88;;;3.80;99.90;;;;;;6246840;22;20011;-77
2023/03/16 05:37:02;;;;;;;11.38;6.13;;;3.80;99.90;;;;;;6246730;22;20012;-77
2023/03/16 05:39:29;;;;;;;8.07;6.05;;;3.80;99.90;;;;;;6220469;22;20019;-77
2023/03/16 05:41:56;;;;;;;11.52;6.40;;;3.80;99.90;;;;;;6273397;22;20027;-77
2023/03/16 05:44:22;;;;;;;11.23;5.72;;;3.80;99.90;;;;;;6220656;22;20087;-77
2023/03/16 05:46:48;;;;;;;8.73;6.00;;;3.80;99.90;;;;;;6220695;22;20011;-77
2023/03/16 05:49:14;;;;;;;11.20;6.30;;;3.90;99.90;;;;;;6273876;22;20014;-77
2023/03/16 05:51:40;;;;;;;11.48;6.00;;;3.90;99.90;;;;;;6220936;22;20085;-77
2023/03/16 05:54:06;;;;;;;10.85;6.00;;;3.90;99.90;;;;;;6245775;22;20011;-76
2023/03/16 05:56:32;;;;;;;9.93;5.93;;;3.90;99.90;;;;;;6273408;22;20073;-77
2023/03/16 05:58:59;;;;;;;12.82;6.50;;;3.90;99.90;;;;;;6220522;22;20019;-77
2023/03/16 06:01:24;;;;;;;12.07;6.38;;;3.90;99.90;;;;;;6220333;22;20441;-76
2023/03/16 06:03:51;;;;;;;9.50;6.38;;;3.90;99.90;;;;;;6245760;22;20016;-77
2023/03/16 06:06:17;;;;;;;8.27;6.25;;;3.90;99.90;;;;;;6273313;22;20109;-77
2023/03/16 06:08:43;;;;;;;9.18;5.82;;;4.80;99.90;;;;;;6219949;22;20091;-77
2023/03/16 06:11:10;;;;;;;9.48;5.93;;;4.00;99.90;;;;;;6273373;22;20100;-77
2023/03/16 06:13:36;;;;;;;10.75;5.80;;;4.00;99.90;;;;;;6222150;22;20093;-77
2023/03/16 06:16:02;;;;;;;10.73;5.72;;;4.20;99.90;;;;;;6275720;22;20019;-78
2023/03/16 06:18:28;;;;;;;9.35;6.22;;;4.00;99.90;;;;;;6222760;22;20438;-78
2023/03/16 06:20:53;;;;;;;9.40;6.53;;;4.00;99.90;;;;;;6221981;22;20008;-78
2023/03/16 06:23:20;;;;;;;10.85;5.63;;;4.00;99.90;;;;;;6247316;22;20016;-78
2023/03/16 06:25:47;;;;;;;10.80;6.43;;;4.00;99.90;;;;;;6248045;22;20015;-78
2023/03/16 06:28:12;;;;;;;13.32;6.18;;;4.10;99.90;;;;;;6275538;22;20011;-77
2023/03/16 06:30:39;;;;;;;10.38;6.22;;;4.10;99.90;;;;;;6247614;22;20019;-78
2023/03/16 06:33:05;;;;;;;10.43;5.78;;;4.10;99.90;;;;;;6275558;22;20094;-78
2023/03/16 06:35:31;;;;;;;10.63;6.15;;;4.40;99.90;;;;;;6222875;22;20011;-78
2023/03/16 06:37:56;;;;;;;11.27;6.70;;;4.10;99.90;;;;;;6222243;22;20016;-77
2023/03/16 06:40:22;;;;;;;11.18;6.13;;;4.20;99.90;;;;;;6247919;22;20484;-79
2023/03/16 06:42:47;;;;;;;10.00;5.85;;;4.20;99.90;;;;;;6248420;22;20012;-78
2023/03/16 06:45:15;;;;;;;10.75;6.18;;;4.20;99.90;;;;;;6222779;22;20008;-78
2023/03/16 06:47:42;;;;;;;9.63;5.90;;;4.20;99.90;;;;;;6248192;22;20015;-78
2023/03/16 06:50:09;;;;;;;10.07;5.93;;;4.30;99.90;;;;;;6275852;22;20157;-78
2023/03/16 06:52:34;;;;;;;10.68;6.10;;;4.30;99.90;;;;;;6247794;22;20012;-79
2023/03/16 06:55:00;;;;;;;10.02;5.95;;;4.40;99.90;;;;;;6275466;22;20033;-80
2023/03/16 06:57:26;;;;;;;10.10;6.00;;;4.40;99.90;;;;;;6248050;22;20015;-78
2023/03/16 06:59:51;;;;;;;8.07;5.57;;;4.40;99.90;;;;;;6247972;22;20512;-78
2023/03/16 07:02:18;;;;;;;11.55;6.57;;;4.50;99.90;;;;;;6222657;22;20035;-78
2023/03/16 07:04:44;;;;;;;15.32;7.15;;;4.50;99.90;;;;;;6248325;22;20412;-78
2023/03/16 07:07:10;;;;;;;13.40;6.15;;;4.50;99.90;;;;;;6222024;22;20004;-78
2023/03/16 07:09:37;;;;;;;8.88;5.40;;;4.50;99.90;;;;;;6248334;22;20016;-78
2023/03/16 07:12:03;;;;;;;8.45;5.55;;;4.60;99.90;;;;;;6247956;22;20087;-77
2023/03/16 07:14:28;;;;;;;8.52;5.45;;;4.60;99.90;;;;;;6222502;22;20015;-78
2023/03/16 07:16:54;;;;;;;8.05;5.57;;;4.60;99.90;;;;;;6222365;22;20023;-78
2023/03/16 07:19:21;;;;;;;7.65;5.47;;;4.70;99.90;;;;;;6275496;22;20007;-78
2023/03/16 07:21:47;;;;;;;10.85;5.53;;;4.70;99.90;;;;;;6222009;22;20054;-78
2023/03/16 07:24:14;;;;;;;9.43;5.70;;;4.70;99.90;;;;;;6247677;22;20019;-77
2023/03/16 07:26:40;;;;;;;9.13;5.60;;;4.80;99.90;;;;;;6275061;22;20039;-79
2023/03/16 07:29:06;;;;;;;10.00;5.60;;;4.80;99.90;;;;;;6274564;22;20640;-79
2023/03/16 07:31:33;;;;;;;10.27;5.35;;;5.00;99.90;;;;;;6222462;22;20015;-79
2023/03/16 07:33:59;;;;;;;8.98;5.63;;;4.90;99.90;;;;;;6222330;22;20012;-79
2023/03/16 07:36:25;;;;;;;9.70;5.45;;;4.90;99.90;;;;;;6247149;22;20008;-79
2023/03/16 07:38:51;;;;;;;8.50;4.85;;;4.90;99.90;;;;;;6247895;22;20069;-79
2023/03/16 07:41:17;;;;;;;7.72;5.43;;;5.00;99.90;;;;;;6274956;22;20498;-79
2023/03/16 07:43:45;;;;;;;7.63;5.20;;;5.00;99.90;;;;;;6247592;22;20000;-79
2023/03/16 07:46:13;;;;;;;9.75;5.18;;;5.00;99.90;;;;;;6222126;22;20015;-79
2023/03/16 07:48:41;;;;;;;7.10;4.57;;;5.20;99.90;;;;;;6247879;22;20321;-79
2023/03/16 07:51:07;;;;;;;10.35;5.90;;;5.10;99.90;;;;;;6221441;22;20043;-79
2023/03/16 07:53:34;;;;;;;9.18;6.03;;;5.30;99.90;;;;;;6222068;22;20025;-79
2023/03/16 07:56:00;;;;;;;12.43;6.03;;;5.10;99.90;;;;;;6247633;22;20014;-79
2023/03/16 07:58:25;;;;;;;11.45;5.30;;;5.20;99.90;;;;;;6247388;22;20012;-79
2023/03/16 08:00:54;;;;;;;9.23;5.10;;;5.20;99.90;;;;;;6221934;22;20030;-79
2023/03/16 08:03:20;;;;;;;11.05;5.80;;;5.30;99.90;;;;;;6221922;22;20022;-78
2023/03/16 08:05:45;;;;;;;9.00;5.57;;;5.40;99.90;;;;;;6274355;22;20016;-79
2023/03/16 08:08:11;;;;;;;8.20;5.50;;;5.50;99.90;;;;;;6247415;22;20469;-79
2023/03/16 08:10:36;;;;;;;8.50;5.70;;;5.50;99.90;;;;;;6221625;22;20018;-79
2023/03/16 08:13:06;;;;;;;8.57;5.10;;;5.50;99.90;;;;;;6247079;22;20011;-79
2023/03/16 08:15:32;;;;;;;8.23;5.13;;;5.60;99.90;;;;;;6274652;22;20037;-79
2023/03/16 08:18:01;;;;;;;9.32;5.45;;;5.60;99.90;;;;;;6274818;22;20133;-79
2023/03/16 08:20:27;;;;;;;10.70;5.85;;;5.60;99.90;;;;;;6246792;22;20028;-79
2023/03/16 08:22:53;;;;;;;9.75;5.47;;;5.60;99.90;;;;;;6247183;22;20425;-79
2023/03/16 08:25:20;;;;;;;10.75;5.75;;;5.60;99.90;;;;;;6247224;22;20501;-79
2023/03/16 08:27:46;;;;;;;10.32;5.47;;;5.60;99.90;;;;;;6247108;22;20046;-79
2023/03/16 08:30:13;;;;;;;7.53;5.35;;;5.50;99.90;;;;;;6221748;22;20011;-79
2023/03/16 08:32:39;;;;;;;9.32;6.10;;;5.50;99.90;;;;;;6247118;22;20483;-79
2023/03/16 08:35:12;;;;;;;10.20;6.20;;;5.50;99.90;;;;;;6273724;22;20012;-79
2023/03/16 08:37:40;;;;;;;7.55;5.80;;;5.50;99.90;;;;;;6222075;22;20047;-79
2023/03/16 08:40:09;;;;;;;9.85;6.57;;;5.50;99.90;;;;;;6221662;22;20208;-79
2023/03/16 08:42:38;;;;;;;9.05;5.47;;;5.50;99.90;;;;;;6247030;22;20043;-79
2023/03/16 08:45:11;;;;;;;9.40;5.40;;;5.50;99.90;;;;;;6221776;22;20295;-79
2023/03/16 08:47:39;;;;;;;7.65;5.50;;;5.60;99.90;;;;;;6221135;22;20064;-79
2023/03/16 08:50:05;;;;;;;7.90;5.40;;;5.60;99.90;;;;;;6246734;22;20508;-79
2023/03/16 08:52:32;;;;;;;10.27;5.82;;;5.70;99.90;;;;;;6246830;22;20078;-79
2023/03/16 08:54:58;;;;;;;10.45;6.00;;;5.90;99.90;;;;;;6246968;22;20012;-79
2023/03/16 08:57:25;;;;;;;8.73;5.93;;;5.70;99.90;;;;;;6274439;22;20035;-79
2023/03/16 08:59:50;;;;;;;10.75;5.78;;;5.70;99.90;;;;;;6273873;22;20530;-79
2023/03/16 09:02:16;;;;;;;8.98;6.60;;;5.70;99.90;;;;;;6246197;22;20051;-79
2023/03/16 09:04:41;;;;;;;9.93;6.05;;;6.00;99.90;;;;;;6247444;22;20345;-79
2023/03/16 09:07:08;;;;;;;8.85;5.82;;;5.70;99.90;;;;;;6247168;22;20042;-79
2023/03/16 09:09:34;;;;;;;9.75;6.38;;;5.70;99.90;;;;;;6246980;22;20086;-79
2023/03/16 09:12:00;;;;;;;11.23;6.15;;;5.70;99.90;;;;;;6221404;22;20046;-79
2023/03/16 09:14:26;;;;;;;7.93;6.10;;;5.70;99.90;;;;;;6246464;22;20019;-79
2023/03/16 09:16:51;;;;;;;9.38;6.68;;;5.70;99.90;;;;;;6273590;22;20338;-79
2023/03/16 09:19:18;;;;;;;10.60;6.43;;;5.70;99.90;;;;;;6273987;22;20007;-79
2023/03/16 09:21:44;;;;;;;11.48;6.60;;;5.70;99.90;;;;;;6273927;22;20008;-79
2023/03/16 09:24:10;;;;;;;9.48;6.05;;;5.80;99.90;;;;;;6246335;22;20081;-80
2023/03/16 09:26:36;;;;;;;11.52;6.88;;;5.80;99.90;;;;;;6246399;22;20015;-79
2023/03/16 09:29:03;;;;;;;11.63;6.95;;;5.80;99.90;;;;;;6246415;22;20004;-79
2023/03/16 09:31:29;;;;;;;10.27;6.47;;;5.80;99.90;;;;;;6220551;22;20340;-79
2023/03/16 09:33:55;;;;;;;10.02;6.28;;;5.80;99.90;;;;;;6273966;22;20023;-79
2023/03/16 09:36:20;;;;;;;12.00;6.75;;;5.90;99.90;;;;;;6221371;22;20338;-79
2023/03/16 09:38:46;;;;;;;10.75;6.45;;;5.90;99.90;;;;;;6274210;22;20020;-79
2023/03/16 09:41:38;;;;;;;9.77;7.13;;;6.00;99.90;;;;;;6246482;22;20460;-79
2023/03/16 09:44:41;;;;;;;8.38;6.63;;;6.10;99.90;;;;;;6221354;22;20018;-79
2023/03/16 09:47:09;;;;;;;11.77;7.53;;;6.20;99.90;;;;;;6220432;22;20401;-79
2023/03/16 09:49:43;;;;;;;10.10;7.20;;;6.30;99.90;;;;;;6221547;22;20008;-79
2023/03/16 09:52:30;;;;;;;11.77;7.00;;;6.50;99.90;;;;;;6273678;22;20004;-79
2023/03/16 09:55:18;;;;;;;10.88;6.80;;;6.60;99.90;;;;;;6246558;22;20022;-78
2023/03/16 09:57:45;;;;;;;11.45;6.75;;;6.70;99.90;;;;;;6221244;22;20361;-79
2023/03/16 10:00:44;;;;;;;8.55;6.20;;;6.80;99.90;;;;;;6246169;22;20067;-79
2023/03/16 10:03:18;;;;;;;10.98;7.20;;;6.80;99.90;;;;;;6215521;22;20016;-79
2023/03/16 10:05:48;;;;;;;13.73;7.22;;;6.80;99.90;;;;;;6221266;22;20086;-79
2023/03/16 10:08:30;;;;;;;13.07;7.00;;;6.80;99.90;;;;;;6246694;22;20122;-79
2023/03/16 10:11:11;;;;;;;8.98;6.60;;;6.90;99.90;;;;;;6246430;22;20011;-79
2023/03/16 10:13:53;;;;;;;9.65;6.75;;;7.00;99.90;;;;;;6220874;22;20023;-79
2023/03/16 10:16:39;;;;;;;14.95;7.60;;;7.00;99.90;;;;;;6246289;22;20030;-79
2023/03/16 10:19:24;;;;;;;11.40;6.65;;;7.00;99.90;;;;;;6246572;22;20023;-78
2023/03/16 10:21:53;;;;;;;10.75;6.82;;;7.00;99.90;;;;;;6220894;22;20366;-79
2023/03/16 10:24:57;;;;;;;10.25;7.10;;;7.00;99.90;;;;;;6221185;22;20464;-79
2023/03/16 10:27:29;;;;;;;10.13;6.40;;;6.90;99.90;;;;;;6215345;22;20042;-79
2023/03/16 10:29:55;;;;;;;14.30;7.38;;;6.80;99.90;;;;;;6245586;22;20019;-79
2023/03/16 10:32:23;;;;;;;10.75;7.68;;;6.80;99.90;;;;;;6246168;22;20011;-79
2023/03/16 10:35:03;;;;;;;12.48;7.32;;;6.90;99.90;;;;;;6221173;22;20054;-79
2023/03/16 10:37:30;;;;;;;11.65;7.05;;;6.80;99.90;;;;;;6246691;22;20008;-79
2023/03/16 10:39:56;;;;;;;10.18;6.95;;;6.90;99.90;;;;;;6220905;22;20012;-79
2023/03/16 10:42:23;;;;;;;8.30;6.57;;;6.80;99.90;;;;;;6220979;22;20315;-79
2023/03/16 10:44:57;;;;;;;11.48;6.75;;;6.70;99.90;;;;;;6245959;22;20004;-79
2023/03/16 10:47:29;;;;;;;9.90;6.88;;;6.80;99.90;;;;;;6246535;22;20087;-79
2023/03/16 10:49:54;;;;;;;11.55;6.97;;;6.90;99.90;;;;;;6273617;22;20012;-79
2023/03/16 10:52:38;;;;;;;12.13;7.10;;;6.80;99.90;;;;;;6220929;22;20008;-79
2023/03/16 10:55:14;;;;;;;10.80;7.03;;;6.80;99.90;;;;;;6221076;22;20069;-79
2023/03/16 10:57:50;;;;;;;11.48;7.18;;;6.70;99.90;;;;;;6246181;22;20007;-79
2023/03/16 11:00:23;;;;;;;9.15;6.75;;;6.80;99.90;;;;;;6247408;22;20008;-79
2023/03/16 11:02:53;;;;;;;10.05;6.07;;;6.90;99.90;;;;;;6247695;22;20008;-79
2023/03/16 11:05:29;;;;;;;11.30;6.57;;;6.90;99.90;;;;;;6275678;22;20054;-80
2023/03/16 11:07:59;;;;;;;13.32;6.78;;;6.80;99.90;;;;;;6248570;22;20012;-79
2023/03/16 11:10:34;;;;;;;9.82;6.38;;;6.80;99.90;;;;;;6247914;22;20008;-79
2023/03/16 11:13:13;;;;;;;10.80;6.82;;;6.80;99.90;;;;;;6247248;22;20454;-79
2023/03/16 11:16:16;;;;;;;9.93;6.57;;;6.80;99.90;;;;;;6247805;22;20012;-79
2023/03/16 11:18:58;;;;;;;10.77;6.07;;;6.80;99.90;;;;;;6247885;22;20035;-79
2023/03/16 11:21:39;;;;;;;12.30;6.55;;;6.80;99.90;;;;;;6275043;22;20015;-79
2023/03/16 11:24:15;;;;;;;9.13;6.05;;;6.80;99.90;;;;;;6275131;22;20007;-79
2023/03/16 11:26:43;;;;;;;8.48;6.10;;;6.90;99.90;;;;;;6275398;22;20004;-79
2023/03/16 11:29:25;;;;;;;9.85;6.63;;;6.90;99.90;;;;;;6247549;22;20008;-79
2023/03/16 11:32:13;;;;;;;10.73;6.40;;;6.90;99.90;;;;;;6247701;22;20070;-79
2023/03/16 11:34:39;;;;;;;8.18;5.57;;;7.00;99.90;;;;;;6274718;22;20015;-79
2023/03/16 11:37:24;;;;;;;10.50;6.18;;;7.10;99.90;;;;;;6222341;22;20099;-79
2023/03/16 11:40:13;;;;;;;9.35;6.00;;;7.10;99.90;;;;;;6247701;22;20077;-79
2023/03/16 11:43:03;;;;;;;9.70;6.15;;;7.10;99.90;;;;;;6221525;22;20429;-79
2023/03/16 11:45:38;;;;;;;9.32;5.93;;;7.20;99.90;;;;;;6248069;22;20008;-79
2023/03/16 11:48:36;;;;;;;9.90;5.72;;;7.20;99.90;;;;;;6222134;22;20091;-79
2023/03/16 11:51:32;;;;;;;7.10;4.97;;;7.30;99.90;;;;;;6275266;22;20022;-79
2023/03/16 11:54:25;;;;;;;8.82;5.60;;;7.40;99.90;;;;;;6221984;22;20016;-79
2023/03/16 11:57:21;;;;;;;7.15;5.70;;;7.50;99.90;;;;;;6221696;22;20022;-79
2023/03/16 11:59:59;;;;;;;8.88;5.35;;;7.60;99.90;;;;;;6222175;22;20003;-79
2023/03/16 12:03:03;;;;;;;8.13;5.32;;;7.70;99.90;;;;;;6247097;22;20500;-79
2023/03/16 12:05:57;;;;;;;7.82;5.43;;;7.70;99.90;;;;;;6247162;22;20515;-79
2023/03/16 12:08:42;;;;;;;;;;;7.90;99.90;;;;;;6247801;22;20018;-79
2023/03/16 12:11:23;;;;;;;9.80;5.93;;;7.90;99.90;;;;;;6246493;22;19918;-79
2023/03/16 12:14:14;;;;;;;8.32;5.40;;;8.00;99.90;;;;;;6247589;22;20018;-79
2023/03/16 12:16:49;;;;;;;10.77;5.40;;;8.00;99.90;;;;;;6221760;22;20011;-79
2023/03/16 12:19:23;;;;;;;7.47;5.10;;;8.20;99.90;;;;;;6247509;22;20338;-79
2023/03/16 12:22:00;;;;;;;8.25;5.13;;;8.30;99.90;;;;;;6246907;22;20091;-79
2023/03/16 12:24:41;;;;;;;8.23;5.10;;;8.50;99.90;;;;;;6247053;22;20056;-79
2023/03/16 12:27:14;;;;;;;10.98;5.60;;;8.70;99.90;;;;;;6246851;22;20461;-79
2023/03/16 12:29:47;;;;;;;;;;;8.60;99.90;;;;;;6274930;22;20135;-79
2023/03/16 12:32:41;;;;;;;8.70;5.00;;;8.60;99.90;;;;;;6247252;22;19978;-79
2023/03/16 12:35:33;;;;;;;8.27;4.87;;;8.70;99.90;;;;;;6221671;22;20019;-79
2023/03/16 12:38:11;;;;;;;8.45;4.82;;;8.70;99.90;;;;;;6247045;22;20129;-80
2023/03/16 12:40:47;;;;;;;7.45;4.68;;;8.90;99.90;;;;;;6246245;22;20018;-79
2023/03/16 12:43:56;;;;;;;7.45;4.68;;;9.00;99.90;;;;;;6246849;22;20018;-79
2023/03/16 12:46:40;;;;;;;7.68;4.90;;;9.00;99.90;;;;;;6101185;23;20420;-79
2023/03/16 12:49:07;;;;;;;10.20;4.82;;;9.10;99.90;;;;;;6125424;23;20013;-79
2023/03/16 12:51:42;;;;;;;9.43;4.95;;;9.20;99.90;;;;;;6150510;23;20015;-79
2023/03/16 12:54:28;;;;;;;8.10;4.80;;;9.30;99.90;;;;;;6125048;23;20096;-79
2023/03/16 12:57:16;;;;;;;7.55;4.40;;;9.40;99.90;;;;;;6101297;23;20384;-79
2023/03/16 12:59:46;;;;;;;9.45;4.53;;;9.40;99.90;;;;;;6125563;23;20100;-79
2023/03/16 13:02:29;;;;;;;8.82;4.47;;;9.40;99.90;;;;;;6150123;23;20018;-78
2023/03/16 13:05:01;;;;;;;7.93;4.50;;;9.40;99.90;;;;;;6125686;23;20017;-79
2023/03/16 13:07:29;;;;;;;5.95;4.32;;;9.40;99.90;;;;;;6125710;23;20009;-79
2023/03/16 13:10:03;;;;;;;7.25;4.63;;;9.50;99.90;;;;;;6125235;23;20014;-79